Aérodrome :
LOGIN :

S'inscrire | Disclaimer

   EN    FR    IT 

 










Légende :    VFR   VFR Marginal   IFR   IFR Intensif   IFR Très Intensif
Visi : 
Plafond : 
>= 8 km
>= 3000ft
5 à 8 km
1000 à 3000 ft
1500m à 5 km
500 à 1000 ft
800 à 1500m
200 à 500 ft
< 800m
< 200 ft
Symboles :   Orages  Brouillard  Fortes neiges  Fortes précipitations  Vent > 20 kt
SIGMETs :   Divers  Orages  Givrage  Turbulence  Onde Orograph.  Cendres Volcan.







- Altitude de l'aérodrome : 287 ft
- Voir les cartes d'approche


LFRL - Lanveoc Poulmic

DERNIER METAR :
  • 221500Z AUTO 28010KT CAVOK 18/12 Q1017 NOSIG

METARs EXPIRÉS :
  • 221430Z AUTO 27011KT CAVOK 18/12 Q1017 NOSIG
  • 221400Z AUTO 28009KT 250V320 CAVOK 18/12 Q1017 NOSIG
  • 221330Z AUTO 31009KT 280V350 CAVOK 18/12 Q1017 NOSIG
  • 221300Z AUTO 31010KT 270V330 CAVOK 18/12 Q1017 NOSIG
  • 221230Z AUTO 31011KT 9999 FEW020 18/12 Q1017 NOSIG

TAF TAF LFRL
Valide du 22 à 15h jusqu'au 23 à 00h UTC


221400Z 2215/2224 29010KT CAVOK
BECMG 2217/2218 BKN006 BKN012
Pas de NOTAMs connus pour ce terrain.



MET'MAP, la Météo Aéronautique d'un coup d'oeil ! - Copyright ORBIFLY Décembre 2007 - Disclaimer

ORBIFLY MET'MAP TEAM :

Programmation & Développement : Alexandra Zaïnal
Conception & Développement : Baudouin d'Aumeries
Co-Programmation & Développement : Marc-Olivier Méhu
Soutien technique & logistique : Manuel Goepfert

Contact : metmap@orbifly.com




SOURCES & CREDITS :

   NOAA